Time;durP1;ratioP1;P1;durP2;ratioP2;P2;SDS_P1;SDS_P2;PMS_P1;PMS_P2;Temp;Humidity;BMP_temperature;BMP_pressure;BME280_temperature;BME280_humidity;BME280_pressure;Samples;Min_cycle;Max_cycle;Signal;HPM_P1;HPM_P2
2023/01/27 00:00:17;;;;;;;74.72;37.70;;;;;;;;;;1043809;28;20162;-75
2023/01/27 00:00:49;;;;;;;81.03;37.92;;;;;;;;;;1043654;28;20021;-74
2023/01/27 00:01:19;;;;;;;69.10;37.20;;;;;;;;;;1039121;28;20107;-74
2023/01/27 00:01:51;;;;;;;72.60;36.15;;;;;;;;;;1039633;28;20504;-74
2023/01/27 00:02:21;;;;;;;70.10;37.85;;;;;;;;;;1038651;28;20013;-74
2023/01/27 00:02:52;;;;;;;77.32;37.85;;;;;;;;;;1043588;28;20025;-75
2023/01/27 00:03:22;;;;;;;65.22;35.25;;;;;;;;;;1043516;28;20037;-74
2023/01/27 00:03:53;;;;;;;76.13;36.50;;;;;;;;;;1043302;28;20083;-74
2023/01/27 00:04:23;;;;;;;67.88;36.33;;;;;;;;;;1043304;28;20029;-75
2023/01/27 00:04:54;;;;;;;74.18;36.70;;;;;;;;;;1043726;28;20024;-74
2023/01/27 00:05:25;;;;;;;80.70;40.50;;;;;;;;;;1043670;28;20099;-74
2023/01/27 00:05:57;;;;;;;75.80;35.72;;;;;;;;;;1043758;28;20047;-74
2023/01/27 00:06:27;;;;;;;78.93;36.40;;;;;;;;;;1047342;28;20024;-74
2023/01/27 00:06:58;;;;;;;67.22;35.03;;;;;;;;;;1048023;28;20082;-74
2023/01/27 00:07:28;;;;;;;88.68;41.03;;;;;;;;;;1047297;28;20087;-75
2023/01/27 00:07:59;;;;;;;76.97;37.47;;;;;;;;;;1044084;28;20024;-75
2023/01/27 00:08:30;;;;;;;83.82;41.17;;;;;;;;;;1043799;28;20465;-74
2023/01/27 00:09:00;;;;;;;76.40;35.55;;;;;;;;;;1043953;28;20009;-75
2023/01/27 00:09:31;;;;;;;81.55;38.88;;;;;;;;;;1043888;28;20419;-75
2023/01/27 00:10:01;;;;;;;76.55;37.40;;;;;;;;;;1043947;28;20075;-75
2023/01/27 00:10:32;;;;;;;68.15;34.75;;;;;;;;;;1043751;28;20396;-75
2023/01/27 00:13:30;;;;;;;73.13;39.47;;;;;;;;;;1043816;28;20104;-75
2023/01/27 00:14:01;;;;;;;86.25;38.13;;;;;;;;;;1043902;28;20389;-75
2023/01/27 00:14:31;;;;;;;84.88;38.03;;;;;;;;;;1043616;28;20017;-74
2023/01/27 00:15:02;;;;;;;83.97;40.42;;;;;;;;;;1043977;28;20067;-75
2023/01/27 00:15:33;;;;;;;91.85;40.78;;;;;;;;;;1043752;28;20067;-75
2023/01/27 00:16:04;;;;;;;87.10;41.67;;;;;;;;;;1043329;28;20029;-75
2023/01/27 00:16:35;;;;;;;94.38;39.85;;;;;;;;;;1043535;28;20029;-75
2023/01/27 00:17:05;;;;;;;96.47;41.25;;;;;;;;;;1043668;28;20048;-75
2023/01/27 00:17:36;;;;;;;92.38;42.83;;;;;;;;;;1039306;28;20032;-75
2023/01/27 00:18:07;;;;;;;97.13;42.80;;;;;;;;;;1043615;28;20116;-75
2023/01/27 00:18:37;;;;;;;99.20;46.20;;;;;;;;;;1043460;28;20082;-75
2023/01/27 00:19:08;;;;;;;86.78;42.15;;;;;;;;;;1043599;28;20025;-74
2023/01/27 00:19:38;;;;;;;99.55;45.28;;;;;;;;;;1043757;28;20094;-74
2023/01/27 00:20:09;;;;;;;100.70;45.88;;;;;;;;;;1043820;28;20075;-75
2023/01/27 00:25:00;;;;;;;117.10;48.92;;;;;;;;;;1043276;28;20036;-74
2023/01/27 00:25:30;;;;;;;122.28;50.28;;;;;;;;;;1043088;28;20032;-74
2023/01/27 00:26:05;;;;;;;115.75;52.25;;;;;;;;;;1042923;28;20017;-74
2023/01/27 00:26:35;;;;;;;117.13;50.65;;;;;;;;;;1043414;28;20060;-75
2023/01/27 00:27:10;;;;;;;116.22;57.30;;;;;;;;;;1043674;28;20057;-74
2023/01/27 00:27:40;;;;;;;152.32;63.17;;;;;;;;;;1043655;28;20036;-74
2023/01/27 00:28:22;;;;;;;136.70;57.80;;;;;;;;;;1044225;28;20480;-74
2023/01/27 00:28:52;;;;;;;143.35;64.10;;;;;;;;;;1043518;28;20033;-74
2023/01/27 00:29:23;;;;;;;148.02;61.17;;;;;;;;;;1043659;28;20465;-74
2023/01/27 00:29:53;;;;;;;147.23;66.85;;;;;;;;;;1043471;28;20037;-74
2023/01/27 00:30:24;;;;;;;168.20;69.63;;;;;;;;;;1043364;28;20075;-74
2023/01/27 00:30:54;;;;;;;173.73;71.20;;;;;;;;;;1043616;28;20021;-74
2023/01/27 00:33:54;;;;;;;152.13;64.10;;;;;;;;;;1042751;28;20017;-74
2023/01/27 00:34:25;;;;;;;136.02;63.95;;;;;;;;;;1043779;28;20116;-74
2023/01/27 00:34:56;;;;;;;148.63;65.32;;;;;;;;;;1043811;28;20389;-74
2023/01/27 00:35:26;;;;;;;144.73;63.28;;;;;;;;;;1043782;28;20131;-74
2023/01/27 00:36:05;;;;;;;146.73;66.15;;;;;;;;;;1043393;28;20031;-74
2023/01/27 00:36:36;;;;;;;145.98;61.05;;;;;;;;;;1042529;28;20421;-74
2023/01/27 00:37:07;;;;;;;155.88;62.72;;;;;;;;;;1042772;28;20017;-74
2023/01/27 00:37:38;;;;;;;142.32;61.35;;;;;;;;;;1043404;28;20362;-74
2023/01/27 00:38:08;;;;;;;137.20;57.08;;;;;;;;;;1043486;28;20020;-74
2023/01/27 00:38:41;;;;;;;129.10;59.47;;;;;;;;;;1039355;28;20055;-74
2023/01/27 00:39:12;;;;;;;136.18;58.72;;;;;;;;;;1039972;28;20059;-74
2023/01/27 00:39:42;;;;;;;112.78;50.85;;;;;;;;;;1039255;28;20075;-74
2023/01/27 00:40:15;;;;;;;107.47;51.30;;;;;;;;;;1039735;28;20075;-74
2023/01/27 00:41:14;;;;;;;107.45;48.67;;;;;;;;;;1043115;28;20020;-74
2023/01/27 00:41:36;;;;;;;98.40;45.35;;;;;;;;;;1046118;28;20024;-74
2023/01/27 00:42:06;;;;;;;119.70;47.67;;;;;;;;;;1043562;28;20505;-74
2023/01/27 00:42:37;;;;;;;115.13;47.05;;;;;;;;;;1043691;28;20122;-74
2023/01/27 00:43:07;;;;;;;107.50;48.63;;;;;;;;;;1043885;28;20116;-75
2023/01/27 00:43:38;;;;;;;97.38;45.65;;;;;;;;;;1043569;28;20027;-75
2023/01/27 00:44:14;;;;;;;107.25;48.28;;;;;;;;;;1043585;28;20505;-75
2023/01/27 00:45:47;;;;;;;100.07;45.30;;;;;;;;;;1043297;28;20025;-75
2023/01/27 00:45:51;;;;;;;111.00;46.78;;;;;;;;;;1043221;28;20029;-74
2023/01/27 00:46:22;;;;;;;110.72;48.65;;;;;;;;;;1042683;28;20029;-75
2023/01/27 00:46:53;;;;;;;104.88;44.97;;;;;;;;;;1043539;28;20382;-75
2023/01/27 00:47:23;;;;;;;106.10;47.13;;;;;;;;;;1043183;28;20020;-75
2023/01/27 00:47:54;;;;;;;89.72;41.83;;;;;;;;;;1043225;28;20057;-75
2023/01/27 00:48:24;;;;;;;98.80;44.22;;;;;;;;;;1043277;28;20436;-75
2023/01/27 00:48:55;;;;;;;92.28;41.28;;;;;;;;;;1043390;28;20485;-75
2023/01/27 00:49:25;;;;;;;95.15;43.63;;;;;;;;;;1043491;28;20024;-75
2023/01/27 00:49:56;;;;;;;91.80;41.95;;;;;;;;;;1043288;28;20481;-74
2023/01/27 00:50:26;;;;;;;82.68;40.80;;;;;;;;;;1043370;28;20016;-74
2023/01/27 00:50:57;;;;;;;90.07;43.10;;;;;;;;;;1043464;28;20027;-74
2023/01/27 00:51:27;;;;;;;97.57;45.00;;;;;;;;;;1043484;28;20024;-74
2023/01/27 00:51:58;;;;;;;122.65;47.50;;;;;;;;;;1043874;28;20021;-74
2023/01/27 00:52:28;;;;;;;101.47;41.47;;;;;;;;;;1043505;28;20033;-74
2023/01/27 00:53:01;;;;;;;95.35;44.42;;;;;;;;;;1043642;28;20017;-74
2023/01/27 00:53:31;;;;;;;104.80;45.88;;;;;;;;;;1043632;28;20029;-74
2023/01/27 00:54:02;;;;;;;82.35;41.53;;;;;;;;;;1043925;28;20027;-74
2023/01/27 00:54:32;;;;;;;93.32;43.75;;;;;;;;;;1043763;28;20166;-74
2023/01/27 00:55:03;;;;;;;92.45;44.85;;;;;;;;;;1044298;28;20017;-74
2023/01/27 00:55:33;;;;;;;92.32;43.25;;;;;;;;;;1043730;28;20028;-74
2023/01/27 00:56:04;;;;;;;94.68;42.97;;;;;;;;;;1043859;28;20025;-74
2023/01/27 00:56:35;;;;;;;86.15;40.78;;;;;;;;;;1043792;28;20083;-74
2023/01/27 00:57:06;;;;;;;81.63;40.20;;;;;;;;;;1043717;28;20027;-75
2023/01/27 00:57:37;;;;;;;79.22;38.25;;;;;;;;;;1043642;28;20656;-74
2023/01/27 00:58:07;;;;;;;90.22;41.75;;;;;;;;;;1043743;28;20025;-74
2023/01/27 00:58:38;;;;;;;101.53;40.75;;;;;;;;;;1043249;28;20024;-74
2023/01/27 00:59:09;;;;;;;91.47;42.88;;;;;;;;;;1043293;28;20639;-75
2023/01/27 00:59:39;;;;;;;88.45;39.78;;;;;;;;;;1042791;28;20048;-74
2023/01/27 01:00:10;;;;;;;90.28;44.13;;;;;;;;;;1043481;28;20024;-74
2023/01/27 01:00:41;;;;;;;85.25;40.10;;;;;;;;;;1043824;28;20036;-75
2023/01/27 01:01:13;;;;;;;80.10;38.60;;;;;;;;;;1043613;28;20028;-75
2023/01/27 01:01:43;;;;;;;91.65;45.42;;;;;;;;;;1043566;28;20470;-75
2023/01/27 01:02:14;;;;;;;98.28;45.58;;;;;;;;;;1046940;28;20024;-75
2023/01/27 01:02:44;;;;;;;88.55;43.78;;;;;;;;;;1047599;28;20520;-74
2023/01/27 01:03:15;;;;;;;97.05;45.50;;;;;;;;;;1047506;28;20392;-74
2023/01/27 01:03:45;;;;;;;94.85;44.28;;;;;;;;;;1047478;28;20108;-74
2023/01/27 01:04:16;;;;;;;91.72;43.92;;;;;;;;;;1043370;28;20016;-74
2023/01/27 01:04:46;;;;;;;89.10;46.05;;;;;;;;;;1047497;28;20059;-74
2023/01/27 01:05:17;;;;;;;99.13;44.83;;;;;;;;;;1043202;28;20142;-75
2023/01/27 01:05:48;;;;;;;94.95;43.35;;;;;;;;;;1043370;28;20064;-74
2023/01/27 01:06:19;;;;;;;116.80;44.67;;;;;;;;;;1042794;28;20059;-75
2023/01/27 01:06:49;;;;;;;102.80;45.50;;;;;;;;;;1043496;28;20036;-74
2023/01/27 01:07:20;;;;;;;97.05;41.67;;;;;;;;;;1043402;28;20436;-74
2023/01/27 01:07:50;;;;;;;104.18;47.03;;;;;;;;;;1043705;28;20456;-74
2023/01/27 01:08:21;;;;;;;105.05;47.00;;;;;;;;;;1043258;28;20077;-74
2023/01/27 01:08:51;;;;;;;90.63;42.72;;;;;;;;;;1043376;28;20104;-74
2023/01/27 01:09:22;;;;;;;97.45;46.45;;;;;;;;;;1043271;28;20078;-74
2023/01/27 01:09:53;;;;;;;99.97;45.88;;;;;;;;;;1043403;28;20035;-74
2023/01/27 01:10:23;;;;;;;112.47;48.75;;;;;;;;;;1043501;28;20040;-74
2023/01/27 01:10:54;;;;;;;111.82;47.95;;;;;;;;;;1043111;28;20083;-74
2023/01/27 01:11:24;;;;;;;105.63;42.95;;;;;;;;;;1043206;28;20067;-74
2023/01/27 01:11:55;;;;;;;99.70;45.88;;;;;;;;;;1040306;28;20021;-75
2023/01/27 01:12:25;;;;;;;102.57;45.53;;;;;;;;;;1041385;28;20029;-74
2023/01/27 01:12:56;;;;;;;119.10;48.30;;;;;;;;;;1041222;28;20064;-75
2023/01/27 01:13:27;;;;;;;119.50;45.83;;;;;;;;;;1041535;28;20544;-74
2023/01/27 01:13:57;;;;;;;98.05;44.70;;;;;;;;;;1039145;28;20500;-74
2023/01/27 01:14:28;;;;;;;114.63;49.83;;;;;;;;;;1039275;28;20120;-74
2023/01/27 01:14:58;;;;;;;118.43;51.28;;;;;;;;;;1042574;28;20029;-74
2023/01/27 01:15:29;;;;;;;102.15;45.70;;;;;;;;;;1043194;28;20045;-74
2023/01/27 01:16:13;;;;;;;119.07;52.40;;;;;;;;;;1043089;28;20020;-74
2023/01/27 01:16:43;;;;;;;112.78;50.60;;;;;;;;;;1043291;28;20028;-74
2023/01/27 01:17:14;;;;;;;133.27;55.70;;;;;;;;;;1041140;28;20040;-74
2023/01/27 01:17:44;;;;;;;131.07;55.50;;;;;;;;;;1044996;28;20408;-74
2023/01/27 01:18:15;;;;;;;131.25;54.45;;;;;;;;;;1047438;28;20026;-74
2023/01/27 01:18:46;;;;;;;112.10;50.80;;;;;;;;;;1043764;28;20029;-74
2023/01/27 01:19:16;;;;;;;113.38;48.20;;;;;;;;;;1043583;28;20025;-74
2023/01/27 01:19:47;;;;;;;130.88;54.95;;;;;;;;;;1043524;28;20035;-74
2023/01/27 01:20:17;;;;;;;113.47;50.47;;;;;;;;;;1043049;28;20029;-74
2023/01/27 01:20:48;;;;;;;119.85;51.42;;;;;;;;;;1043136;28;20036;-74
2023/01/27 01:21:19;;;;;;;127.50;53.78;;;;;;;;;;1042427;28;20028;-74
2023/01/27 01:21:49;;;;;;;124.13;55.63;;;;;;;;;;1038923;28;20037;-74
2023/01/27 01:22:20;;;;;;;108.95;49.20;;;;;;;;;;1043292;28;20569;-74
2023/01/27 01:22:50;;;;;;;112.10;52.35;;;;;;;;;;1043231;28;20021;-74
2023/01/27 01:23:21;;;;;;;126.43;53.58;;;;;;;;;;1039133;28;20052;-74
2023/01/27 01:23:51;;;;;;;121.05;55.22;;;;;;;;;;1038796;28;20017;-74
2023/01/27 01:24:22;;;;;;;140.02;59.58;;;;;;;;;;1038991;28;20022;-74
2023/01/27 01:24:52;;;;;;;144.20;58.63;;;;;;;;;;1039559;28;20168;-74
2023/01/27 01:25:23;;;;;;;122.50;56.38;;;;;;;;;;1043204;28;20035;-74
2023/01/27 01:25:54;;;;;;;115.45;56.10;;;;;;;;;;1047253;28;20028;-74
2023/01/27 01:26:24;;;;;;;124.75;58.13;;;;;;;;;;1047106;28;20064;-74
2023/01/27 01:26:55;;;;;;;142.45;59.58;;;;;;;;;;1043609;28;20069;-74
2023/01/27 01:27:26;;;;;;;139.85;62.67;;;;;;;;;;1043557;28;20115;-74
2023/01/27 01:27:56;;;;;;;129.05;60.97;;;;;;;;;;1043738;28;20029;-74
2023/01/27 01:28:27;;;;;;;127.57;58.05;;;;;;;;;;1043594;28;20028;-74
2023/01/27 01:28:57;;;;;;;137.27;67.88;;;;;;;;;;1043576;28;20036;-74
2023/01/27 01:29:28;;;;;;;123.50;58.33;;;;;;;;;;1043013;28;20024;-74
2023/01/27 01:29:59;;;;;;;130.63;61.25;;;;;;;;;;1041095;28;20048;-74
2023/01/27 01:30:30;;;;;;;128.90;58.45;;;;;;;;;;1040286;28;20501;-74
2023/01/27 01:31:14;;;;;;;133.27;58.13;;;;;;;;;;1040992;28;20021;-74
2023/01/27 01:31:44;;;;;;;124.60;54.78;;;;;;;;;;1043325;28;20079;-74
2023/01/27 01:32:15;;;;;;;136.00;59.58;;;;;;;;;;1043096;28;20032;-74
2023/01/27 01:32:46;;;;;;;118.55;55.83;;;;;;;;;;1043254;28;20032;-74
2023/01/27 01:33:16;;;;;;;129.45;61.50;;;;;;;;;;1042685;28;20474;-74
2023/01/27 01:33:47;;;;;;;130.98;59.10;;;;;;;;;;1043292;28;20806;-74
2023/01/27 01:34:17;;;;;;;149.40;63.20;;;;;;;;;;1042941;28;20122;-74
2023/01/27 01:34:48;;;;;;;144.27;62.85;;;;;;;;;;1043272;28;20059;-74
2023/01/27 01:35:19;;;;;;;117.30;56.97;;;;;;;;;;1043332;28;20416;-74
2023/01/27 01:35:49;;;;;;;124.15;59.70;;;;;;;;;;1038882;28;20064;-74
2023/01/27 01:36:20;;;;;;;138.88;64.75;;;;;;;;;;1043021;28;20025;-74
2023/01/27 01:36:50;;;;;;;140.07;62.10;;;;;;;;;;1041232;28;20543;-74
2023/01/27 01:37:21;;;;;;;128.82;63.83;;;;;;;;;;1036954;28;20017;-74
2023/01/27 01:37:53;;;;;;;130.05;60.03;;;;;;;;;;1038906;28;20107;-74
2023/01/27 01:38:23;;;;;;;125.60;60.78;;;;;;;;;;1039020;28;20025;-74
2023/01/27 01:38:57;;;;;;;146.63;64.32;;;;;;;;;;1038014;28;20402;-74
2023/01/27 01:39:28;;;;;;;132.88;63.28;;;;;;;;;;1041133;28;20027;-74
2023/01/27 01:39:58;;;;;;;146.23;65.68;;;;;;;;;;1042949;28;20032;-74
2023/01/27 01:40:29;;;;;;;130.10;60.92;;;;;;;;;;1043401;28;20024;-74
2023/01/27 01:40:59;;;;;;;143.82;67.45;;;;;;;;;;1043129;28;20025;-74
2023/01/27 01:41:30;;;;;;;163.60;68.13;;;;;;;;;;1043092;28;20048;-75
2023/01/27 01:42:00;;;;;;;144.15;65.95;;;;;;;;;;1043429;28;20061;-75
2023/01/27 01:42:52;;;;;;;135.40;65.72;;;;;;;;;;1043223;28;20450;-74
2023/01/27 01:43:25;;;;;;;148.00;67.70;;;;;;;;;;1043074;28;20436;-74
2023/01/27 01:43:55;;;;;;;164.13;69.47;;;;;;;;;;1043327;28;20128;-74
2023/01/27 01:44:29;;;;;;;160.77;76.32;;;;;;;;;;1043500;28;20025;-74
2023/01/27 01:45:19;;;;;;;175.80;82.82;;;;;;;;;;1043437;28;20369;-75
2023/01/27 01:45:49;;;;;;;165.02;81.43;;;;;;;;;;1043355;28;20056;-75
2023/01/27 01:46:21;;;;;;;176.70;78.95;;;;;;;;;;1043108;28;20024;-74
2023/01/27 01:46:51;;;;;;;176.13;79.97;;;;;;;;;;1043454;28;20501;-74
2023/01/27 01:47:22;;;;;;;185.15;79.95;;;;;;;;;;1042385;28;20028;-74
2023/01/27 01:47:52;;;;;;;201.68;85.95;;;;;;;;;;1043105;28;20029;-74
2023/01/27 01:48:31;;;;;;;196.70;88.20;;;;;;;;;;1043319;28;20078;-74
2023/01/27 01:49:02;;;;;;;187.38;80.38;;;;;;;;;;1043296;28;20116;-74
2023/01/27 01:49:35;;;;;;;190.38;84.15;;;;;;;;;;1043234;28;20028;-74
2023/01/27 01:50:06;;;;;;;186.57;81.57;;;;;;;;;;1043304;28;20028;-74
2023/01/27 01:50:38;;;;;;;194.30;80.07;;;;;;;;;;1043201;28;20021;-74
2023/01/27 01:51:12;;;;;;;190.15;82.78;;;;;;;;;;1043317;28;20044;-74
2023/01/27 01:51:44;;;;;;;181.13;79.68;;;;;;;;;;1042781;28;20017;-74
2023/01/27 01:52:16;;;;;;;170.10;74.82;;;;;;;;;;1043135;28;20545;-74
2023/01/27 01:52:47;;;;;;;162.25;74.10;;;;;;;;;;1043280;28;20047;-74
2023/01/27 01:53:18;;;;;;;159.57;68.95;;;;;;;;;;1038924;28;20493;-74
2023/01/27 01:53:51;;;;;;;169.63;73.38;;;;;;;;;;1039311;28;20048;-74
2023/01/27 01:54:22;;;;;;;156.68;71.90;;;;;;;;;;1042363;28;20389;-74
2023/01/27 01:54:54;;;;;;;148.07;65.82;;;;;;;;;;1043094;28;20031;-74
2023/01/27 01:55:25;;;;;;;158.90;67.10;;;;;;;;;;1043498;28;20049;-74
2023/01/27 01:55:57;;;;;;;144.18;63.17;;;;;;;;;;1043794;28;20082;-74
2023/01/27 01:56:35;;;;;;;140.20;65.63;;;;;;;;;;1043501;28;20021;-73
2023/01/27 01:57:06;;;;;;;161.43;66.88;;;;;;;;;;1042888;28;20020;-74
2023/01/27 01:57:39;;;;;;;139.52;61.58;;;;;;;;;;1043259;28;20035;-74
2023/01/27 01:58:11;;;;;;;123.63;56.42;;;;;;;;;;1043472;28;20020;-74
2023/01/27 01:58:43;;;;;;;136.70;61.38;;;;;;;;;;1043280;28;20021;-74
2023/01/27 01:59:15;;;;;;;142.55;61.63;;;;;;;;;;1043519;28;20021;-74
2023/01/27 01:59:47;;;;;;;143.32;60.95;;;;;;;;;;1042738;28;20096;-74
2023/01/27 02:00:18;;;;;;;147.13;63.00;;;;;;;;;;1043100;28;20098;-74
2023/01/27 02:00:49;;;;;;;146.20;62.90;;;;;;;;;;1040020;28;20579;-75
2023/01/27 02:01:19;;;;;;;145.40;67.47;;;;;;;;;;1041336;28;20049;-74
2023/01/27 02:01:51;;;;;;;153.60;63.75;;;;;;;;;;1045497;28;20057;-74
2023/01/27 02:02:22;;;;;;;138.93;62.35;;;;;;;;;;1042728;28;20048;-74
2023/01/27 02:02:53;;;;;;;166.30;68.18;;;;;;;;;;1041518;28;20499;-74
2023/01/27 02:03:24;;;;;;;170.90;76.72;;;;;;;;;;1043148;28;20025;-74
2023/01/27 02:03:57;;;;;;;166.95;72.22;;;;;;;;;;1040464;28;20021;-75
2023/01/27 02:04:33;;;;;;;166.70;70.25;;;;;;;;;;1040109;28;20078;-75
2023/01/27 02:05:06;;;;;;;179.23;72.63;;;;;;;;;;1040207;28;20078;-75
2023/01/27 02:05:40;;;;;;;164.95;71.95;;;;;;;;;;1040449;28;20043;-74
2023/01/27 02:06:10;;;;;;;172.07;79.00;;;;;;;;;;1042692;28;20025;-75
2023/01/27 02:06:47;;;;;;;189.25;87.53;;;;;;;;;;1039707;28;20104;-75
2023/01/27 02:07:21;;;;;;;169.50;77.88;;;;;;;;;;1041217;28;20555;-75
2023/01/27 02:08:09;;;;;;;193.00;85.00;;;;;;;;;;1040439;28;20555;-75
2023/01/27 02:08:41;;;;;;;186.63;80.65;;;;;;;;;;1042416;28;20017;-74
2023/01/27 02:09:13;;;;;;;172.10;76.63;;;;;;;;;;1043258;28;20021;-75
2023/01/27 02:09:43;;;;;;;190.85;81.47;;;;;;;;;;1042955;28;20021;-75
2023/01/27 02:10:14;;;;;;;189.02;82.13;;;;;;;;;;1042879;28;20052;-75
2023/01/27 02:10:45;;;;;;;177.48;77.07;;;;;;;;;;1042626;28;20170;-75
2023/01/27 02:11:15;;;;;;;259.30;110.00;;;;;;;;;;1042868;28;20497;-75
2023/01/27 02:11:46;;;;;;;244.55;110.10;;;;;;;;;;1038722;28;20028;-75
2023/01/27 02:12:16;;;;;;;306.27;132.90;;;;;;;;;;1042539;28;20027;-75
2023/01/27 02:12:47;;;;;;;288.95;123.38;;;;;;;;;;1042497;28;20021;-75
2023/01/27 02:13:17;;;;;;;247.75;111.13;;;;;;;;;;1042631;28;20082;-74
2023/01/27 02:13:48;;;;;;;232.75;106.95;;;;;;;;;;1042467;28;20021;-74
2023/01/27 02:14:19;;;;;;;214.70;98.72;;;;;;;;;;1042053;28;20573;-74
2023/01/27 02:14:49;;;;;;;206.48;89.13;;;;;;;;;;1041253;28;20021;-75
2023/01/27 02:15:20;;;;;;;206.48;90.30;;;;;;;;;;1039270;28;20782;-75
2023/01/27 02:15:52;;;;;;;179.90;77.30;;;;;;;;;;1035748;28;20028;-75
2023/01/27 02:16:23;;;;;;;158.13;68.78;;;;;;;;;;1038504;28;20570;-75
2023/01/27 02:16:54;;;;;;;163.20;65.70;;;;;;;;;;1040128;28;20021;-74
2023/01/27 02:17:24;;;;;;;135.40;63.67;;;;;;;;;;1038746;28;20025;-74
2023/01/27 02:17:55;;;;;;;159.68;65.55;;;;;;;;;;1042920;28;20158;-74
2023/01/27 02:18:26;;;;;;;145.93;70.68;;;;;;;;;;1042581;28;20079;-74
2023/01/27 02:18:56;;;;;;;155.38;67.88;;;;;;;;;;1043166;28;20024;-74
2023/01/27 02:19:33;;;;;;;147.85;70.18;;;;;;;;;;1041727;28;20032;-74
2023/01/27 02:20:07;;;;;;;161.55;73.47;;;;;;;;;;1039863;28;20053;-74
2023/01/27 02:20:44;;;;;;;145.15;67.93;;;;;;;;;;1041863;28;20067;-74
2023/01/27 02:21:16;;;;;;;142.82;67.15;;;;;;;;;;1042211;28;20033;-74
2023/01/27 02:21:48;;;;;;;160.82;74.00;;;;;;;;;;1043824;28;20590;-74
2023/01/27 02:22:25;;;;;;;170.63;74.15;;;;;;;;;;1045384;28;20599;-74
2023/01/27 02:23:10;;;;;;;156.73;74.40;;;;;;;;;;1042760;28;20674;-74
2023/01/27 02:24:00;;;;;;;190.88;76.50;;;;;;;;;;1039988;28;20044;-74
2023/01/27 02:24:30;;;;;;;;;;;;;;;;;;1041653;28;20080;-74
2023/01/27 02:25:05;;;;;;;180.45;75.70;;;;;;;;;;1041424;28;20304;-74
2023/01/27 02:25:36;;;;;;;180.40;79.20;;;;;;;;;;1040601;28;20033;-74
2023/01/27 02:26:13;;;;;;;178.18;81.25;;;;;;;;;;1043277;28;20021;-74
2023/01/27 02:26:44;;;;;;;177.07;83.15;;;;;;;;;;1039951;28;20032;-74
2023/01/27 02:27:15;;;;;;;190.35;86.72;;;;;;;;;;1042177;28;20500;-74
2023/01/27 02:27:45;;;;;;;172.85;80.93;;;;;;;;;;1043696;28;20028;-74
2023/01/27 02:28:16;;;;;;;179.30;78.03;;;;;;;;;;1043560;28;20150;-74
2023/01/27 02:28:52;;;;;;;194.40;83.50;;;;;;;;;;1043802;28;20055;-75
2023/01/27 02:29:23;;;;;;;167.45;77.07;;;;;;;;;;1046842;28;20496;-75
2023/01/27 02:29:53;;;;;;;174.55;80.53;;;;;;;;;;1043603;28;20029;-74
2023/01/27 02:30:24;;;;;;;179.88;81.93;;;;;;;;;;1043408;28;20100;-74
2023/01/27 02:30:55;;;;;;;158.00;64.85;;;;;;;;;;1038870;28;20532;-74
2023/01/27 02:31:26;;;;;;;177.65;75.43;;;;;;;;;;1039280;28;20169;-74
2023/01/27 02:31:56;;;;;;;159.75;70.53;;;;;;;;;;1043634;28;20082;-75
2023/01/27 02:32:27;;;;;;;191.05;76.30;;;;;;;;;;1039198;28;20026;-74
2023/01/27 02:32:57;;;;;;;185.60;78.38;;;;;;;;;;1043469;28;20025;-74
2023/01/27 02:33:28;;;;;;;165.32;69.85;;;;;;;;;;1043318;28;20032;-75
2023/01/27 02:34:03;;;;;;;188.85;80.38;;;;;;;;;;1043302;28;20390;-75
2023/01/27 02:34:35;;;;;;;171.88;76.93;;;;;;;;;;1041886;28;20060;-74
2023/01/27 02:35:07;;;;;;;162.25;71.18;;;;;;;;;;1043629;28;20481;-74
2023/01/27 02:35:41;;;;;;;166.93;72.00;;;;;;;;;;1041862;28;20464;-74
2023/01/27 02:36:13;;;;;;;184.50;75.47;;;;;;;;;;1042764;28;20397;-74
2023/01/27 02:36:46;;;;;;;173.13;75.53;;;;;;;;;;1043194;28;20095;-74
2023/01/27 02:37:17;;;;;;;179.80;80.75;;;;;;;;;;1043134;28;20163;-74
2023/01/27 02:37:49;;;;;;;213.38;88.38;;;;;;;;;;1043473;28;20033;-75
2023/01/27 02:38:20;;;;;;;191.63;81.85;;;;;;;;;;1043009;28;20516;-74
2023/01/27 02:38:52;;;;;;;213.32;85.28;;;;;;;;;;1042723;28;20024;-74
2023/01/27 02:39:24;;;;;;;203.00;81.90;;;;;;;;;;1037813;28;20026;-74
2023/01/27 02:39:56;;;;;;;193.77;85.03;;;;;;;;;;1038347;28;20071;-74
2023/01/27 02:40:28;;;;;;;181.27;80.38;;;;;;;;;;1042978;28;20011;-74
2023/01/27 02:41:03;;;;;;;184.85;84.20;;;;;;;;;;1042990;28;20060;-74
2023/01/27 02:41:37;;;;;;;167.70;79.20;;;;;;;;;;1042798;28;20056;-74
2023/01/27 02:42:09;;;;;;;175.05;78.47;;;;;;;;;;1043910;28;20021;-74
2023/01/27 02:42:39;;;;;;;159.43;77.82;;;;;;;;;;1043668;28;20473;-74
2023/01/27 02:43:10;;;;;;;155.27;72.90;;;;;;;;;;1043574;28;20021;-74
2023/01/27 02:43:42;;;;;;;143.15;72.97;;;;;;;;;;1042810;28;20033;-74
2023/01/27 02:44:13;;;;;;;141.25;72.07;;;;;;;;;;1042958;28;20079;-74
2023/01/27 02:44:43;;;;;;;149.32;69.47;;;;;;;;;;1041292;28;20055;-74
2023/01/27 02:45:14;;;;;;;156.10;71.85;;;;;;;;;;1046721;28;20981;-74
2023/01/27 02:45:45;;;;;;;150.32;65.88;;;;;;;;;;1042542;28;20033;-74
2023/01/27 02:46:15;;;;;;;123.22;61.05;;;;;;;;;;1042664;28;20031;-74
2023/01/27 02:46:46;;;;;;;144.20;60.20;;;;;;;;;;1042550;28;20047;-74
2023/01/27 02:47:17;;;;;;;123.30;56.63;;;;;;;;;;1043396;28;20063;-74
2023/01/27 02:47:47;;;;;;;125.07;60.22;;;;;;;;;;1043245;28;20440;-74
2023/01/27 02:48:18;;;;;;;128.93;56.63;;;;;;;;;;1043433;28;20468;-74
2023/01/27 02:48:48;;;;;;;100.43;50.47;;;;;;;;;;1042971;28;20139;-74
2023/01/27 02:49:19;;;;;;;127.95;54.78;;;;;;;;;;1042657;28;20895;-75
2023/01/27 02:49:49;;;;;;;119.95;51.75;;;;;;;;;;1040569;28;20017;-75
2023/01/27 02:50:20;;;;;;;148.25;60.78;;;;;;;;;;1039625;28;20025;-74
2023/01/27 02:50:50;;;;;;;156.82;60.78;;;;;;;;;;1044656;28;20395;-75
2023/01/27 02:51:21;;;;;;;149.27;62.00;;;;;;;;;;1038690;28;20024;-75
2023/01/27 02:51:51;;;;;;;150.98;64.32;;;;;;;;;;1037448;28;20025;-75
2023/01/27 02:52:22;;;;;;;148.80;67.05;;;;;;;;;;1038509;28;20067;-75
2023/01/27 02:52:53;;;;;;;161.32;67.10;;;;;;;;;;1039576;28;20100;-75
2023/01/27 02:53:23;;;;;;;163.75;64.85;;;;;;;;;;1042712;28;20029;-75
2023/01/27 02:53:54;;;;;;;173.70;67.95;;;;;;;;;;1043317;28;20052;-75
2023/01/27 02:54:25;;;;;;;169.65;66.45;;;;;;;;;;1043219;28;20029;-75
2023/01/27 02:54:56;;;;;;;187.32;79.03;;;;;;;;;;1043522;28;20036;-75
2023/01/27 02:55:26;;;;;;;182.63;81.13;;;;;;;;;;1043082;28;20017;-75
2023/01/27 02:55:57;;;;;;;195.38;83.55;;;;;;;;;;1043262;28;20385;-75
2023/01/27 02:56:27;;;;;;;189.40;78.80;;;;;;;;;;1041352;28;20049;-74
2023/01/27 02:56:58;;;;;;;174.52;77.32;;;;;;;;;;1040921;28;20104;-75
2023/01/27 02:57:29;;;;;;;186.30;80.63;;;;;;;;;;1041938;28;20079;-75
2023/01/27 02:57:59;;;;;;;196.80;82.07;;;;;;;;;;1043999;28;20350;-75
2023/01/27 02:58:30;;;;;;;203.85;84.15;;;;;;;;;;1042992;28;20067;-75
2023/01/27 02:59:00;;;;;;;202.68;87.28;;;;;;;;;;1043197;28;20028;-75
2023/01/27 02:59:31;;;;;;;220.57;88.90;;;;;;;;;;1042999;28;20155;-75
2023/01/27 03:00:04;;;;;;;223.60;94.25;;;;;;;;;;1043240;28;20025;-75
2023/01/27 03:00:38;;;;;;;235.40;93.90;;;;;;;;;;1042745;28;20075;-74
2023/01/27 03:01:08;;;;;;;216.02;95.80;;;;;;;;;;1043639;28;20047;-74
2023/01/27 03:01:39;;;;;;;228.52;94.20;;;;;;;;;;1043000;28;20024;-74
2023/01/27 03:02:21;;;;;;;225.60;100.20;;;;;;;;;;1042219;28;20440;-75
2023/01/27 03:02:52;;;;;;;239.43;97.13;;;;;;;;;;1043101;28;20037;-75
2023/01/27 03:03:22;;;;;;;230.32;97.07;;;;;;;;;;1043218;28;20494;-75
2023/01/27 03:03:53;;;;;;;232.60;103.03;;;;;;;;;;1043451;28;20443;-75
2023/01/27 03:04:23;;;;;;;214.85;96.93;;;;;;;;;;1042834;28;20027;-75
2023/01/27 03:04:54;;;;;;;245.00;98.82;;;;;;;;;;1043658;28;20040;-75
2023/01/27 03:05:24;;;;;;;237.23;100.18;;;;;;;;;;1043543;28;20013;-75
2023/01/27 03:05:55;;;;;;;240.82;99.80;;;;;;;;;;1043915;28;20028;-75
2023/01/27 03:06:25;;;;;;;223.07;97.55;;;;;;;;;;1042835;28;20021;-75
2023/01/27 03:06:56;;;;;;;241.35;100.45;;;;;;;;;;1043663;28;20119;-75
2023/01/27 03:07:26;;;;;;;233.25;98.72;;;;;;;;;;1043142;28;20031;-75
2023/01/27 03:07:57;;;;;;;230.25;99.78;;;;;;;;;;1043453;28;20071;-75
2023/01/27 03:08:28;;;;;;;237.15;103.82;;;;;;;;;;1043366;28;20108;-75
2023/01/27 03:08:58;;;;;;;221.75;93.05;;;;;;;;;;1043264;28;20059;-75
2023/01/27 03:09:30;;;;;;;194.63;87.05;;;;;;;;;;1040581;28;20112;-75
2023/01/27 03:10:02;;;;;;;210.07;88.45;;;;;;;;;;1039099;28;20059;-75
2023/01/27 03:10:33;;;;;;;218.55;92.30;;;;;;;;;;1041410;28;20230;-75
2023/01/27 03:11:05;;;;;;;221.10;96.95;;;;;;;;;;1042793;28;20013;-75
2023/01/27 03:12:28;;;;;;;210.57;90.53;;;;;;;;;;1041428;28;20571;-76